createdAt,value
2019-04-04T00:00:48.666Z,29.70
2019-04-04T00:03:16.631Z,25.97
2019-04-04T00:05:44.495Z,24.00
2019-04-04T00:08:12.253Z,26.77
2019-04-04T00:10:40.015Z,22.52
2019-04-04T00:13:10.865Z,25.77
2019-04-04T00:15:45.519Z,28.17
2019-04-04T00:18:20.550Z,25.57
2019-04-04T00:20:54.586Z,22.82
2019-04-04T00:23:29.469Z,26.95
2019-04-04T00:25:59.960Z,24.77
2019-04-04T00:28:36.762Z,25.92
2019-04-04T00:31:06.782Z,23.90
2019-04-04T00:33:34.951Z,22.90
2019-04-04T00:36:03.377Z,24.75
2019-04-04T00:38:31.804Z,22.25
2019-04-04T00:40:59.984Z,24.35
2019-04-04T00:43:36.756Z,24.57
2019-04-04T00:46:04.823Z,28.73
2019-04-04T00:48:39.762Z,23.47
2019-04-04T00:51:28.104Z,22.58
2019-04-04T00:53:56.689Z,23.65
2019-04-04T00:56:24.754Z,24.82
2019-04-04T00:58:54.263Z,31.42
2019-04-04T01:01:26.995Z,25.80
2019-04-04T01:03:56.956Z,26.80
2019-04-04T01:06:26.873Z,30.12
2019-04-04T01:08:54.739Z,32.98
2019-04-04T01:11:25.988Z,28.90
2019-04-04T01:14:02.300Z,33.83
2019-04-04T01:16:34.169Z,31.68
2019-04-04T01:19:02.380Z,25.23
2019-04-04T01:21:30.655Z,35.68
2019-04-04T01:23:59.013Z,30.60
2019-04-04T01:26:28.022Z,26.93
2019-04-04T01:28:56.097Z,25.80
2019-04-04T01:31:24.268Z,28.80
2019-04-04T01:34:01.459Z,28.38
2019-04-04T01:36:35.874Z,26.02
2019-04-04T01:41:53.930Z,32.65
2019-04-04T01:44:28.353Z,34.20
2019-04-04T01:46:56.320Z,35.63
2019-04-04T01:49:30.226Z,32.42
2019-04-04T01:52:00.943Z,32.60
2019-04-04T01:54:32.807Z,34.92
2019-04-04T01:57:01.812Z,29.48
2019-04-04T01:59:31.311Z,32.10
2019-04-04T02:01:59.995Z,35.40
2019-04-04T02:04:36.550Z,42.15
2019-04-04T02:07:06.175Z,31.45
2019-04-04T02:09:34.670Z,32.95
2019-04-04T02:12:02.528Z,33.00
2019-04-04T02:14:30.286Z,34.95
2019-04-04T02:16:58.045Z,33.60
2019-04-04T02:19:26.119Z,31.10
2019-04-04T02:21:55.429Z,31.68
2019-04-04T02:24:23.591Z,35.58
2019-04-04T02:26:51.257Z,36.03
2019-04-04T02:29:19.018Z,40.40
2019-04-04T02:31:54.720Z,32.67
2019-04-04T02:34:23.352Z,35.15
2019-04-04T02:36:51.219Z,38.50
2019-04-04T02:39:18.979Z,33.53
2019-04-04T02:41:48.362Z,63.50
2019-04-04T02:44:16.038Z,47.23
2019-04-04T02:46:45.501Z,35.85
2019-04-04T02:49:13.723Z,40.75
2019-04-04T02:51:41.638Z,34.35
2019-04-04T02:54:10.186Z,37.35
2019-04-04T02:56:38.142Z,39.70
2019-04-04T02:59:05.900Z,38.10
2019-04-04T03:01:37.180Z,41.10
2019-04-04T03:04:04.830Z,46.80
2019-04-04T03:06:32.882Z,35.68
2019-04-04T03:09:00.845Z,34.60
2019-04-04T03:11:28.712Z,39.92
2019-04-04T03:13:56.689Z,35.40
2019-04-04T03:16:24.451Z,48.42
2019-04-04T03:18:52.310Z,41.08
2019-04-04T03:21:23.482Z,54.85
2019-04-04T03:23:50.501Z,45.38
2019-04-04T03:26:20.040Z,38.05
2019-04-04T03:28:48.286Z,45.58
2019-04-04T03:31:16.046Z,38.50
2019-04-04T03:33:44.039Z,36.77
2019-04-04T03:36:12.188Z,45.17
2019-04-04T03:38:40.981Z,51.68
2019-04-04T03:41:08.941Z,52.53
2019-04-04T03:43:36.933Z,47.53
2019-04-04T03:46:04.904Z,49.77
2019-04-04T03:48:32.852Z,43.58
2019-04-04T03:51:04.687Z,47.83
2019-04-04T03:53:31.136Z,45.03
2019-04-04T03:56:01.191Z,52.90
2019-04-04T03:58:29.015Z,42.98
2019-04-04T04:00:57.507Z,52.20
2019-04-04T04:03:25.568Z,55.08
2019-04-04T04:05:53.537Z,49.10
2019-04-04T04:08:22.259Z,51.77
2019-04-04T04:10:50.093Z,52.20
2019-04-04T04:13:18.179Z,47.53
2019-04-04T04:15:46.174Z,52.90
2019-04-04T04:18:14.115Z,54.40
2019-04-04T04:20:42.004Z,56.23
2019-04-04T04:23:10.132Z,46.68
2019-04-04T04:25:38.310Z,48.35
2019-04-04T04:28:06.275Z,52.65
2019-04-04T04:30:39.288Z,54.80
2019-04-04T04:33:05.083Z,51.23
2019-04-04T04:35:33.170Z,47.98
2019-04-04T04:38:01.013Z,46.28
2019-04-04T04:40:28.985Z,51.55
2019-04-04T04:42:59.820Z,47.90
2019-04-04T04:45:26.563Z,45.10
2019-04-04T04:47:57.045Z,52.88
2019-04-04T04:50:24.548Z,44.27
2019-04-04T04:52:52.824Z,48.25
2019-04-04T04:55:21.094Z,54.25
2019-04-04T04:57:48.987Z,58.75
2019-04-04T05:00:18.060Z,51.95
2019-04-04T05:02:46.333Z,48.80
2019-04-04T05:05:14.709Z,49.65
2019-04-04T05:07:42.987Z,56.68
2019-04-04T05:10:10.955Z,53.75
2019-04-04T05:12:38.940Z,52.98
2019-04-04T05:15:06.995Z,63.13
2019-04-04T05:17:34.963Z,57.25
2019-04-04T05:20:05.180Z,54.50
2019-04-04T05:22:32.949Z,56.58
2019-04-04T05:25:07.929Z,54.90
2019-04-04T05:27:30.552Z,53.75
2019-04-04T05:29:58.610Z,59.90
2019-04-04T05:32:26.565Z,52.93
2019-04-04T05:34:54.545Z,51.92
2019-04-04T05:37:22.704Z,48.80
2019-04-04T05:39:51.534Z,44.67
2019-04-04T05:42:20.277Z,56.45
2019-04-04T05:44:48.258Z,50.20
2019-04-04T05:47:16.232Z,51.23
2019-04-04T05:49:44.209Z,44.05
2019-04-04T05:52:12.160Z,48.40
2019-04-04T05:54:40.702Z,48.02
2019-04-04T05:57:08.597Z,44.90
2019-04-04T05:59:36.571Z,46.90
2019-04-04T06:02:06.785Z,47.48
2019-04-04T06:04:34.558Z,50.40
2019-04-04T06:07:04.453Z,44.85
2019-04-04T06:09:31.931Z,47.88
2019-04-04T06:12:00.400Z,52.03
2019-04-04T06:14:30.091Z,44.30
2019-04-04T06:16:58.488Z,62.13
2019-04-04T06:19:26.353Z,56.30
2019-04-04T06:21:54.322Z,39.92
2019-04-04T06:24:22.295Z,42.67
2019-04-04T06:26:50.261Z,45.70
2019-04-04T06:29:18.434Z,46.25
2019-04-04T06:31:46.501Z,54.27
2019-04-04T06:34:14.374Z,43.38
2019-04-04T06:36:42.546Z,48.85
2019-04-04T06:39:10.815Z,55.55
2019-04-04T06:41:38.581Z,45.40
2019-04-04T06:44:06.763Z,53.00
2019-04-04T06:46:34.724Z,49.75
2019-04-04T06:49:04.397Z,38.38
2019-04-04T06:51:32.300Z,43.73
2019-04-04T06:54:01.029Z,44.45
2019-04-04T06:56:31.852Z,49.38
2019-04-04T06:58:58.287Z,44.40
2019-04-04T07:01:26.630Z,50.58
2019-04-04T07:03:54.190Z,45.88
2019-04-04T07:06:22.158Z,39.98
2019-04-04T07:08:50.123Z,37.80
2019-04-04T07:11:21.409Z,33.63
2019-04-04T07:13:48.115Z,39.05
2019-04-04T07:16:15.871Z,47.95
2019-04-04T07:18:43.851Z,43.65
2019-04-04T07:21:11.812Z,43.30
2019-04-04T07:23:41.862Z,43.58
2019-04-04T07:26:14.580Z,41.83
2019-04-04T07:28:39.404Z,53.23
2019-04-04T07:31:07.372Z,40.75
2019-04-04T07:33:37.694Z,35.00
2019-04-04T07:36:05.764Z,39.15
2019-04-04T07:38:35.104Z,30.02
2019-04-04T07:41:02.827Z,30.15
2019-04-04T07:43:30.934Z,36.38
2019-04-04T07:46:01.342Z,25.50
2019-04-04T07:48:28.622Z,35.08
2019-04-04T07:50:58.490Z,32.55
2019-04-04T07:53:28.351Z,37.23
2019-04-04T07:55:56.169Z,26.85
2019-04-04T07:58:24.156Z,33.50
2019-04-04T08:00:52.720Z,21.50
2019-04-04T08:03:21.411Z,25.02
2019-04-04T08:05:49.368Z,14.65
2019-04-04T08:08:17.342Z,21.00
2019-04-04T08:10:45.335Z,23.32
2019-04-04T08:13:13.478Z,21.12
2019-04-04T08:15:41.348Z,18.12
2019-04-04T08:18:09.417Z,21.33
2019-04-04T08:20:37.304Z,19.65
2019-04-04T08:23:05.458Z,19.75
2019-04-04T08:25:33.631Z,19.77
2019-04-04T08:28:01.395Z,20.05
2019-04-04T08:30:29.461Z,18.27
2019-04-04T08:32:57.445Z,23.20
2019-04-04T08:35:25.505Z,22.10
2019-04-04T08:37:53.429Z,17.62
2019-04-04T08:40:21.441Z,23.25
2019-04-04T08:42:49.510Z,18.35
2019-04-04T08:45:17.587Z,70.22
2019-04-04T08:47:45.551Z,17.52
2019-04-04T08:50:13.621Z,12.47
2019-04-04T08:52:41.997Z,15.30
2019-04-04T08:55:09.866Z,13.65
2019-04-04T08:57:37.932Z,13.38
2019-04-04T09:00:07.130Z,22.00
2019-04-04T09:02:35.409Z,18.57
2019-04-04T09:05:11.943Z,22.30
2019-04-04T09:07:34.418Z,20.68
2019-04-04T09:10:04.913Z,20.65
2019-04-04T09:12:32.509Z,23.98
2019-04-04T09:15:00.573Z,18.75
2019-04-04T09:17:28.545Z,20.12
2019-04-04T09:19:56.512Z,17.32
2019-04-04T09:22:24.480Z,17.50
2019-04-04T09:24:52.448Z,20.30
2019-04-04T09:27:20.532Z,14.10
2019-04-04T09:29:48.690Z,19.67
2019-04-04T09:32:16.658Z,17.42
2019-04-04T09:34:44.933Z,21.55
2019-04-04T09:37:12.902Z,17.00
2019-04-04T09:39:41.078Z,21.05
2019-04-04T09:42:10.082Z,18.95
2019-04-04T09:44:38.036Z,24.45
2019-04-04T09:47:06.046Z,22.67
2019-04-04T09:49:34.045Z,16.87
2019-04-04T09:52:02.170Z,21.62
2019-04-04T09:54:30.429Z,19.20
2019-04-04T09:56:58.394Z,19.73
2019-04-04T09:59:26.363Z,15.78
2019-04-04T10:01:54.739Z,18.25
2019-04-04T10:04:22.909Z,24.07
2019-04-04T10:06:50.880Z,22.22
2019-04-04T10:09:18.956Z,17.35
2019-04-04T10:11:46.920Z,25.45
2019-04-04T10:14:15.195Z,14.93
2019-04-04T10:16:43.166Z,17.85
2019-04-04T10:19:11.132Z,15.55
2019-04-04T10:21:38.999Z,18.42
2019-04-04T10:24:07.073Z,12.95
2019-04-04T10:26:34.936Z,17.90
2019-04-04T10:29:02.908Z,19.23
2019-04-04T10:31:30.972Z,20.97
2019-04-04T10:33:59.762Z,16.37
2019-04-04T10:36:27.829Z,20.40
2019-04-04T10:38:56.206Z,21.05
2019-04-04T10:41:25.012Z,24.00
2019-04-04T10:43:53.174Z,17.35
2019-04-04T10:46:21.244Z,16.65
2019-04-04T10:48:49.207Z,17.52
2019-04-04T10:51:17.281Z,15.80
2019-04-04T10:53:45.874Z,13.05
2019-04-04T10:56:13.934Z,18.00
2019-04-04T10:58:42.008Z,12.25
2019-04-04T11:01:10.959Z,11.95
2019-04-04T11:03:39.272Z,15.83
2019-04-04T11:06:07.238Z,13.95
2019-04-04T11:08:35.206Z,14.73
2019-04-04T11:11:03.187Z,15.13
2019-04-04T11:13:34.206Z,14.75
2019-04-04T11:16:03.437Z,16.90
2019-04-04T11:18:31.082Z,18.60
2019-04-04T11:21:00.287Z,22.80
2019-04-04T11:23:28.343Z,23.73
2019-04-04T11:25:56.519Z,16.70
2019-04-04T11:28:24.592Z,16.67
2019-04-04T11:30:52.660Z,17.65
2019-04-04T11:33:20.828Z,24.05
2019-04-04T11:35:48.905Z,36.03
2019-04-04T11:38:16.870Z,22.17
2019-04-04T11:40:44.841Z,20.55
2019-04-04T11:43:12.909Z,19.62
2019-04-04T11:45:40.879Z,32.17
2019-04-04T11:48:08.843Z,21.00
2019-04-04T11:50:39.615Z,21.62
2019-04-04T11:53:06.834Z,13.85
2019-04-04T11:55:35.109Z,12.82
2019-04-04T11:58:02.873Z,17.32
2019-04-04T12:00:32.894Z,15.83
2019-04-04T12:03:01.482Z,14.30
2019-04-04T12:05:29.131Z,14.28
2019-04-04T12:07:57.214Z,14.55
2019-04-04T12:10:25.172Z,14.98
2019-04-04T12:12:52.727Z,19.15
2019-04-04T12:15:21.418Z,13.10
2019-04-04T12:17:50.307Z,12.82
2019-04-04T12:20:18.272Z,14.93
2019-04-04T12:22:46.356Z,19.32
2019-04-04T12:25:14.240Z,19.92
2019-04-04T12:27:42.289Z,20.80
2019-04-04T12:30:11.173Z,20.15
2019-04-04T12:32:39.241Z,16.48
2019-04-04T12:35:08.435Z,21.37
2019-04-04T12:37:36.409Z,13.35
2019-04-04T12:40:05.501Z,14.60
2019-04-04T12:42:33.263Z,11.05
2019-04-04T12:45:01.235Z,11.60
2019-04-04T12:47:30.435Z,14.93
2019-04-04T12:49:58.504Z,15.68
2019-04-04T12:52:26.783Z,15.28
2019-04-04T12:54:54.948Z,13.30
2019-04-04T12:57:22.522Z,15.43
2019-04-04T12:59:50.591Z,13.60
2019-04-04T13:02:19.262Z,11.25
2019-04-04T13:04:47.362Z,16.60
2019-04-04T13:07:15.709Z,14.85
2019-04-04T13:09:43.883Z,27.65
2019-04-04T13:12:11.952Z,8.60
2019-04-04T13:14:42.483Z,10.28
2019-04-04T13:17:10.553Z,12.33
2019-04-04T13:19:38.523Z,18.70
2019-04-04T13:22:06.510Z,15.13
2019-04-04T13:24:34.462Z,20.62
2019-04-04T13:27:04.371Z,10.58
2019-04-04T13:29:32.344Z,14.63
2019-04-04T13:32:00.310Z,12.43
2019-04-04T13:34:28.283Z,13.98
2019-04-04T13:36:56.244Z,10.80
2019-04-04T13:39:24.317Z,15.18
2019-04-04T13:41:52.080Z,19.20
2019-04-04T13:44:21.401Z,18.30
2019-04-04T13:46:49.655Z,10.85
2019-04-04T13:49:18.699Z,14.35
2019-04-04T13:51:47.036Z,13.00
2019-04-04T13:54:15.309Z,12.90
2019-04-04T13:56:43.279Z,17.32
2019-04-04T13:59:11.241Z,14.70
2019-04-04T14:01:42.724Z,11.15
2019-04-04T14:04:09.538Z,11.45
2019-04-04T14:06:37.496Z,11.28
2019-04-04T14:09:07.685Z,21.52
2019-04-04T14:11:35.289Z,18.90
2019-04-04T14:14:03.468Z,29.45
2019-04-04T14:16:31.656Z,20.77
2019-04-04T14:18:59.796Z,17.80
2019-04-04T14:21:27.763Z,18.20
2019-04-04T14:23:56.982Z,24.63
2019-04-04T14:26:25.035Z,24.72
2019-04-04T14:28:53.004Z,21.45
2019-04-04T14:31:20.971Z,24.77
2019-04-04T14:33:49.252Z,22.82
2019-04-04T14:36:17.313Z,23.40
2019-04-04T14:38:45.399Z,40.30
2019-04-04T14:41:13.158Z,15.20
2019-04-04T14:43:41.124Z,19.55
2019-04-04T14:46:09.087Z,28.40
2019-04-04T14:48:37.468Z,36.58
2019-04-04T14:51:05.550Z,17.25
2019-04-04T14:53:34.017Z,22.05
2019-04-04T14:56:01.889Z,26.07
2019-04-04T14:58:30.844Z,18.02
2019-04-04T15:00:59.466Z,19.40
2019-04-04T15:03:27.224Z,23.35
2019-04-04T15:05:55.195Z,15.68
2019-04-04T15:08:23.060Z,23.70
2019-04-04T15:10:50.968Z,19.67
2019-04-04T15:13:18.998Z,23.50
2019-04-04T15:16:12.474Z,20.35
2019-04-04T15:18:42.886Z,28.85
2019-04-04T15:21:10.793Z,24.15
2019-04-04T15:23:38.948Z,27.20
2019-04-04T15:26:09.672Z,15.83
2019-04-04T15:28:36.512Z,19.65
2019-04-04T15:31:04.569Z,16.48
2019-04-04T15:33:33.022Z,11.95
2019-04-04T15:36:01.124Z,35.17
2019-04-04T15:38:29.196Z,17.90
2019-04-04T15:40:57.162Z,12.10
2019-04-04T15:43:25.133Z,15.00
2019-04-04T15:45:53.201Z,22.22
2019-04-04T15:48:21.273Z,24.92
2019-04-04T15:50:49.352Z,16.65
2019-04-04T15:53:17.724Z,20.00
2019-04-04T15:55:45.922Z,26.62
2019-04-04T15:58:14.439Z,25.15
2019-04-04T16:00:42.853Z,21.45
2019-04-04T16:03:11.055Z,25.30
2019-04-04T16:05:38.990Z,24.25
2019-04-04T16:08:06.962Z,26.27
2019-04-04T16:10:35.237Z,31.87
2019-04-04T16:13:03.218Z,28.10
2019-04-04T16:15:32.298Z,63.75
2019-04-04T16:18:01.427Z,29.55
2019-04-04T16:20:29.612Z,30.88
2019-04-04T16:22:59.176Z,24.37
2019-04-04T16:25:27.875Z,37.80
2019-04-04T16:27:55.829Z,43.38
2019-04-04T16:30:24.127Z,32.33
2019-04-04T16:32:52.078Z,22.48
2019-04-04T16:35:21.993Z,29.85
2019-04-04T16:37:50.061Z,27.27
2019-04-04T16:40:17.929Z,25.40
2019-04-04T16:42:46.357Z,26.42
2019-04-04T16:45:14.584Z,20.85
2019-04-04T16:47:42.854Z,25.57
2019-04-04T16:50:10.839Z,37.80
2019-04-04T16:52:39.408Z,36.88
2019-04-04T16:55:07.593Z,37.67
2019-04-04T16:57:35.550Z,35.55
2019-04-04T17:00:05.877Z,42.27
2019-04-04T17:02:33.938Z,58.87
2019-04-04T17:05:02.112Z,50.67
2019-04-04T17:07:30.286Z,58.42
2019-04-04T17:09:59.174Z,48.40
2019-04-04T17:12:27.458Z,48.85
2019-04-04T17:14:56.161Z,51.73
2019-04-04T17:17:24.121Z,61.48
2019-04-04T17:19:52.185Z,66.95
2019-04-04T17:22:20.143Z,69.70
2019-04-04T17:24:48.313Z,60.70
2019-04-04T17:27:16.841Z,63.08
2019-04-04T17:29:46.530Z,65.42
2019-04-04T17:32:15.625Z,64.30
2019-04-04T17:34:44.253Z,75.62
2019-04-04T17:37:12.833Z,73.70
2019-04-04T17:39:40.937Z,90.22
2019-04-04T17:42:09.562Z,81.00
2019-04-04T17:44:37.390Z,91.57
2019-04-04T17:47:05.464Z,91.15
2019-04-04T17:49:33.994Z,87.85
2019-04-04T17:52:02.211Z,87.47
2019-04-04T17:54:30.704Z,88.37
2019-04-04T17:56:58.356Z,87.80
2019-04-04T17:59:26.325Z,107.03
2019-04-04T18:01:55.107Z,137.82
2019-04-04T18:04:22.986Z,117.15
2019-04-04T18:06:51.052Z,119.90
2019-04-04T18:09:30.929Z,106.78
2019-04-04T18:11:48.728Z,100.60
2019-04-04T18:14:16.801Z,110.85
2019-04-04T18:16:44.665Z,100.05
2019-04-04T18:19:12.632Z,150.93
2019-04-04T18:21:40.601Z,152.90
2019-04-04T18:24:08.579Z,128.68
2019-04-04T18:26:36.740Z,141.35
2019-04-04T18:29:04.713Z,119.40
2019-04-04T18:31:32.675Z,132.27
2019-04-04T18:34:00.912Z,88.37
2019-04-04T18:36:29.017Z,79.87
2019-04-04T18:38:57.311Z,80.38
2019-04-04T18:41:25.374Z,57.50
2019-04-04T18:43:53.338Z,132.22
2019-04-04T18:46:21.309Z,81.47
2019-04-04T18:48:49.276Z,61.40
2019-04-04T18:51:20.420Z,59.75
2019-04-04T18:53:49.441Z,73.15
2019-04-04T18:56:17.375Z,76.35
2019-04-04T18:58:45.325Z,60.15
2019-04-04T19:01:13.830Z,66.37
2019-04-04T19:03:41.901Z,118.77
2019-04-04T19:06:09.887Z,50.98
2019-04-04T19:08:38.036Z,50.08
2019-04-04T19:11:05.910Z,60.45
2019-04-04T19:13:43.743Z,72.65
2019-04-04T19:16:03.788Z,54.00
2019-04-04T19:18:31.758Z,41.33
2019-04-04T19:20:59.732Z,66.50
2019-04-04T19:23:27.874Z,50.00
2019-04-04T19:25:55.665Z,134.60
2019-04-04T19:28:23.635Z,226.05
2019-04-04T19:30:51.499Z,98.70
2019-04-04T19:33:19.461Z,104.50
2019-04-04T19:35:47.636Z,79.10
2019-04-04T19:38:15.714Z,88.92
2019-04-04T19:40:43.480Z,70.40
2019-04-04T19:43:17.946Z,57.60
2019-04-04T19:45:42.312Z,62.23
2019-04-04T19:48:10.242Z,50.70
2019-04-04T19:50:39.318Z,58.95
2019-04-04T19:53:07.507Z,53.48
2019-04-04T19:55:35.374Z,48.13
2019-04-04T19:58:03.453Z,61.70
2019-04-04T20:00:32.161Z,60.12
2019-04-04T20:03:01.750Z,70.92
2019-04-04T20:05:29.812Z,72.35
2019-04-04T20:07:58.597Z,67.40
2019-04-04T20:10:26.569Z,72.47
2019-04-04T20:12:54.533Z,74.32
2019-04-04T20:15:23.223Z,73.80
2019-04-04T20:17:51.184Z,85.17
2019-04-04T20:20:19.981Z,89.22
2019-04-04T20:22:48.043Z,77.58
2019-04-04T20:25:16.012Z,82.42
2019-04-04T20:27:54.041Z,70.32
2019-04-04T20:30:14.421Z,77.08
2019-04-04T20:32:42.693Z,71.02
2019-04-04T20:35:10.871Z,74.47
2019-04-04T20:37:38.828Z,60.48
2019-04-04T20:40:06.901Z,67.12
2019-04-04T20:42:34.771Z,65.05
2019-04-04T20:45:04.164Z,60.73
2019-04-04T20:47:33.815Z,55.92
2019-04-04T20:50:01.768Z,63.35
2019-04-04T20:52:30.013Z,52.58
2019-04-04T20:54:58.907Z,53.52
2019-04-04T20:57:26.571Z,58.73
2019-04-04T20:59:54.538Z,59.27
2019-04-04T21:02:23.017Z,56.48
2019-04-04T21:04:51.091Z,48.15
2019-04-04T21:07:19.170Z,55.73
2019-04-04T21:09:47.122Z,50.33
2019-04-04T21:12:15.114Z,48.55
2019-04-04T21:14:43.064Z,64.42
2019-04-04T21:17:11.758Z,61.48
2019-04-04T21:19:39.716Z,60.50
2019-04-04T21:22:07.582Z,53.92
2019-04-04T21:24:37.190Z,56.70
2019-04-04T21:27:05.158Z,53.13
2019-04-04T21:29:33.124Z,55.20
2019-04-04T21:32:01.100Z,47.62
2019-04-04T21:34:29.263Z,51.00
2019-04-04T21:36:57.441Z,54.30
2019-04-04T21:39:25.717Z,59.75
2019-04-04T21:41:53.581Z,56.60
2019-04-04T21:44:21.550Z,61.02
2019-04-04T21:46:49.620Z,66.10
2019-04-04T21:49:17.591Z,54.77
2019-04-04T21:51:45.559Z,50.92
2019-04-04T21:54:13.837Z,50.03
2019-04-04T21:56:41.967Z,55.30
2019-04-04T21:59:10.073Z,45.92
2019-04-04T22:01:38.758Z,51.20
2019-04-04T22:04:06.831Z,53.50
2019-04-04T22:06:34.903Z,55.50
2019-04-04T22:09:07.144Z,55.83
2019-04-04T22:11:35.549Z,61.37
2019-04-04T22:14:03.519Z,57.67
2019-04-04T22:16:31.587Z,55.00
2019-04-04T22:18:59.557Z,48.15
2019-04-04T22:21:27.675Z,50.45
2019-04-04T22:23:55.694Z,48.28
2019-04-04T22:26:23.783Z,47.08
2019-04-04T22:28:51.740Z,38.83
2019-04-04T22:31:19.706Z,39.83
2019-04-04T22:33:47.671Z,39.95
2019-04-04T22:36:19.953Z,43.33
2019-04-04T22:38:48.727Z,46.63
2019-04-04T22:41:16.695Z,36.65
2019-04-04T22:43:44.667Z,40.60
2019-04-04T22:46:12.740Z,43.68
2019-04-04T22:48:40.818Z,43.05
2019-04-04T22:51:08.879Z,37.50
2019-04-04T22:53:37.051Z,41.05
2019-04-04T22:56:05.227Z,39.60
2019-04-04T22:58:33.459Z,41.63
2019-04-04T23:01:01.981Z,40.17
2019-04-04T23:03:29.749Z,42.50
2019-04-04T23:05:57.916Z,40.05
2019-04-04T23:08:25.783Z,51.90
2019-04-04T23:10:53.752Z,35.55
2019-04-04T23:13:21.618Z,42.83
2019-04-04T23:15:49.283Z,40.38
2019-04-04T23:18:17.041Z,38.95
2019-04-04T23:20:44.813Z,39.73
2019-04-04T23:23:12.568Z,42.45
2019-04-04T23:25:40.440Z,42.15
2019-04-04T23:28:08.099Z,44.27
2019-04-04T23:30:35.963Z,36.45
2019-04-04T23:33:03.730Z,47.08
2019-04-04T23:35:31.807Z,44.58
2019-04-04T23:37:59.866Z,46.28
2019-04-04T23:40:27.633Z,46.15
2019-04-04T23:42:55.392Z,41.98
2019-04-04T23:45:23.156Z,45.92
2019-04-04T23:47:50.924Z,48.90
2019-04-04T23:50:18.687Z,51.37
2019-04-04T23:52:46.990Z,45.33
2019-04-04T23:55:14.831Z,59.38
2019-04-04T23:57:42.591Z,71.50
